Olney, Texas
Current Conditions -  °F | °C
As of 6:10 AM on Monday 20 Oct 2014 (Local Time) from KRPH Reporting Station
Clear Clear  
Wind Chill: 59°   Ceiling: Unl
Heat Index: 59°   Visibility: 10mi
Dew Point: 58°   Wind: 0mph
Humidity: 96%   Direction: NA
Pressure: 30.05"   Gusts: NA
Location:  33.37°N, 98.75°W
Report Text: KRPH 201110Z AUTO 00000KT 10SM CLR 15/14 A3005 RMK AO2 T01490143
Loading
Personal Weather Stations






























Interactive Weather Map
Tropical Storm Tracking
New forecast layout! Learn more

10-Day Weather Forecast

Advertisements
Track Severe Weather on mobile